createdAt,value
2018-03-14T00:01:28.126Z,6.28
2018-03-14T00:03:55.756Z,6.27
2018-03-14T00:06:23.351Z,6.25
2018-03-14T00:08:50.983Z,6.23
2018-03-14T00:11:18.604Z,6.25
2018-03-14T00:13:46.246Z,6.23
2018-03-14T00:16:13.869Z,6.26
2018-03-14T00:18:41.510Z,6.25
2018-03-14T00:21:09.170Z,6.27
2018-03-14T00:23:36.854Z,6.31
2018-03-14T00:26:04.459Z,6.31
2018-03-14T00:28:32.081Z,6.29
2018-03-14T00:30:59.678Z,6.29
2018-03-14T00:33:27.331Z,6.31
2018-03-14T00:35:54.958Z,6.30
2018-03-14T00:38:22.772Z,6.36
2018-03-14T00:40:50.425Z,6.36
2018-03-14T00:43:18.188Z,6.35
2018-03-14T00:45:45.795Z,6.41
2018-03-14T00:48:13.442Z,6.44
2018-03-14T00:50:41.048Z,6.43
2018-03-14T00:53:08.677Z,6.41
2018-03-14T00:55:36.305Z,6.40
2018-03-14T00:58:03.935Z,6.40
2018-03-14T01:00:31.538Z,6.41
2018-03-14T01:02:59.241Z,6.36
2018-03-14T01:05:26.865Z,6.40
2018-03-14T01:07:54.698Z,6.37
2018-03-14T01:10:22.319Z,6.37
2018-03-14T01:12:49.977Z,6.33
2018-03-14T01:15:17.739Z,6.27
2018-03-14T01:17:45.414Z,6.30
2018-03-14T01:20:13.009Z,6.35
2018-03-14T01:22:40.698Z,6.31
2018-03-14T01:25:08.342Z,6.32
2018-03-14T01:27:35.989Z,6.32
2018-03-14T01:30:03.573Z,6.32
2018-03-14T01:32:31.178Z,6.34
2018-03-14T01:34:58.826Z,6.37
2018-03-14T01:37:26.420Z,6.41
2018-03-14T01:39:54.210Z,6.43
2018-03-14T01:42:21.961Z,6.43
2018-03-14T01:44:49.689Z,6.38
2018-03-14T01:47:17.307Z,6.33
2018-03-14T01:49:44.931Z,6.30
2018-03-14T01:52:12.530Z,6.34
2018-03-14T01:54:40.164Z,6.37
2018-03-14T01:57:07.808Z,6.36
2018-03-14T01:59:35.427Z,6.36
2018-03-14T02:02:03.026Z,6.39
2018-03-14T02:04:30.722Z,6.38
2018-03-14T02:06:58.326Z,6.45
2018-03-14T02:09:25.969Z,6.44
2018-03-14T02:11:53.586Z,6.44
2018-03-14T02:14:21.241Z,6.45
2018-03-14T02:16:48.926Z,6.48
2018-03-14T02:19:16.571Z,6.52
2018-03-14T02:21:44.166Z,6.55
2018-03-14T02:24:11.813Z,6.58
2018-03-14T02:26:39.429Z,6.61
2018-03-14T02:29:07.079Z,6.59
2018-03-14T02:31:34.686Z,6.64
2018-03-14T02:34:02.322Z,6.61
2018-03-14T02:36:41.922Z,6.55
2018-03-14T02:39:09.550Z,6.52
2018-03-14T02:41:37.171Z,6.52
2018-03-14T02:44:04.874Z,6.50
2018-03-14T02:46:32.507Z,6.47
2018-03-14T02:49:00.146Z,6.51
2018-03-14T02:51:27.765Z,6.51
2018-03-14T02:53:55.365Z,6.49
2018-03-14T02:56:23.010Z,6.50
2018-03-14T02:58:50.619Z,6.52
2018-03-14T03:01:18.254Z,6.49
2018-03-14T03:03:45.854Z,6.50
2018-03-14T03:06:13.474Z,6.54
2018-03-14T03:08:41.065Z,6.59
2018-03-14T03:11:08.702Z,6.63
2018-03-14T03:13:36.388Z,6.66
2018-03-14T03:16:03.991Z,6.59
2018-03-14T03:18:31.581Z,6.57
2018-03-14T03:20:59.207Z,6.55
2018-03-14T03:23:26.907Z,6.56
2018-03-14T03:25:54.541Z,6.58
2018-03-14T03:28:22.143Z,6.61
2018-03-14T03:30:49.767Z,6.67
2018-03-14T03:33:17.385Z,6.67
2018-03-14T03:35:45.006Z,6.66
2018-03-14T03:38:12.654Z,6.66
2018-03-14T03:40:40.288Z,6.62
2018-03-14T03:43:07.866Z,6.65
2018-03-14T03:45:35.518Z,6.69
2018-03-14T03:48:03.121Z,6.67
2018-03-14T03:50:30.896Z,6.65
2018-03-14T03:52:58.502Z,6.61
2018-03-14T03:55:26.130Z,6.62
2018-03-14T03:57:53.746Z,6.66
2018-03-14T04:00:21.370Z,6.68
2018-03-14T04:02:49.075Z,6.68
2018-03-14T04:05:16.702Z,6.68
2018-03-14T04:07:44.314Z,6.68
2018-03-14T04:10:11.934Z,6.67
2018-03-14T04:12:39.538Z,6.66
2018-03-14T04:15:07.170Z,6.65
2018-03-14T04:17:34.778Z,6.61
2018-03-14T04:20:02.406Z,6.57
2018-03-14T04:22:30.013Z,6.49
2018-03-14T04:24:57.642Z,6.48
2018-03-14T04:27:25.255Z,6.52
2018-03-14T04:29:52.957Z,6.51
2018-03-14T04:32:20.550Z,6.52
2018-03-14T04:34:48.338Z,6.51
2018-03-14T04:37:16.031Z,6.51
2018-03-14T04:39:43.769Z,6.51
2018-03-14T04:42:11.436Z,6.54
2018-03-14T04:44:39.055Z,6.55
2018-03-14T04:47:06.698Z,6.56
2018-03-14T04:49:34.318Z,6.57
2018-03-14T04:52:01.924Z,6.61
2018-03-14T04:54:29.559Z,6.63
2018-03-14T04:56:57.154Z,6.67
2018-03-14T04:59:24.796Z,6.67
2018-03-14T05:01:52.407Z,6.69
2018-03-14T05:04:20.026Z,6.70
2018-03-14T05:06:47.622Z,6.70
2018-03-14T05:09:15.274Z,6.73
2018-03-14T05:11:42.922Z,6.64
2018-03-14T05:14:10.614Z,6.63
2018-03-14T05:16:38.215Z,6.58
2018-03-14T05:19:05.838Z,6.62
2018-03-14T05:21:33.431Z,6.63
2018-03-14T05:24:01.076Z,6.59
2018-03-14T05:26:28.681Z,6.54
2018-03-14T05:28:56.327Z,6.52
2018-03-14T05:31:23.934Z,6.51
2018-03-14T05:33:51.571Z,6.51
2018-03-14T05:36:19.176Z,6.52
2018-03-14T05:38:46.816Z,6.56
2018-03-14T05:41:14.496Z,6.55
2018-03-14T05:43:42.157Z,6.55
2018-03-14T05:46:09.788Z,6.58
2018-03-14T05:48:37.420Z,6.58
2018-03-14T05:51:05.036Z,6.55
2018-03-14T05:53:32.851Z,6.53
2018-03-14T05:56:00.446Z,6.55
2018-03-14T05:58:28.334Z,6.61
2018-03-14T06:00:55.934Z,6.63
2018-03-14T06:03:23.718Z,6.63
2018-03-14T06:05:51.532Z,6.65
2018-03-14T06:08:19.145Z,6.67
2018-03-14T06:10:46.783Z,6.67
2018-03-14T06:13:14.454Z,6.68
2018-03-14T06:15:42.046Z,6.71
2018-03-14T06:18:09.698Z,6.68
2018-03-14T06:20:37.310Z,6.69
2018-03-14T06:23:05.058Z,6.64
2018-03-14T06:25:32.694Z,6.59
2018-03-14T06:28:00.425Z,6.61
2018-03-14T06:30:28.077Z,6.52
2018-03-14T06:32:55.703Z,6.44
2018-03-14T06:35:23.303Z,6.47
2018-03-14T06:37:50.942Z,6.47
2018-03-14T06:40:18.570Z,6.48
2018-03-14T06:42:46.325Z,6.52
2018-03-14T06:45:13.949Z,6.54
2018-03-14T06:47:41.570Z,6.60
2018-03-14T06:50:09.182Z,6.61
2018-03-14T06:52:36.814Z,6.66
2018-03-14T06:55:04.998Z,6.67
2018-03-14T06:57:32.677Z,6.70
2018-03-14T07:00:12.021Z,6.73
2018-03-14T07:02:48.986Z,6.80
2018-03-14T07:05:30.093Z,6.80
2018-03-14T07:07:57.823Z,6.73
2018-03-14T07:10:25.423Z,6.65
2018-03-14T07:12:53.529Z,6.62
2018-03-14T07:15:21.141Z,6.67
2018-03-14T07:17:49.255Z,6.62
2018-03-14T07:20:16.971Z,6.62
2018-03-14T07:22:44.633Z,6.56
2018-03-14T07:25:12.225Z,6.58
2018-03-14T07:27:39.875Z,6.56
2018-03-14T07:30:07.536Z,6.54
2018-03-14T07:32:35.198Z,6.53
2018-03-14T07:35:02.817Z,6.60
2018-03-14T07:37:30.469Z,6.61
2018-03-14T07:39:58.077Z,6.67
2018-03-14T07:42:25.742Z,6.68
2018-03-14T07:44:53.331Z,6.68
2018-03-14T07:47:21.018Z,6.67
2018-03-14T07:49:48.616Z,6.62
2018-03-14T07:52:16.279Z,6.62
2018-03-14T07:54:43.871Z,6.58
2018-03-14T07:57:11.498Z,6.65
2018-03-14T07:59:39.085Z,6.59
2018-03-14T08:02:06.711Z,6.60
2018-03-14T08:04:34.299Z,6.66
2018-03-14T08:07:01.975Z,6.59
2018-03-14T08:09:29.567Z,6.64
2018-03-14T08:11:57.319Z,6.71
2018-03-14T08:14:24.909Z,6.76
2018-03-14T08:16:52.540Z,6.80
2018-03-14T08:19:20.171Z,6.78
2018-03-14T08:21:47.825Z,6.84
2018-03-14T08:24:15.418Z,7.00
2018-03-14T08:26:43.074Z,7.09
2018-03-14T08:29:10.682Z,7.13
2018-03-14T08:31:38.301Z,7.16
2018-03-14T08:34:05.979Z,7.17
2018-03-14T08:36:33.610Z,7.16
2018-03-14T08:39:01.218Z,7.12
2018-03-14T08:41:28.914Z,7.07
2018-03-14T08:43:56.479Z,7.09
2018-03-14T08:46:24.102Z,7.11
2018-03-14T08:48:51.808Z,7.17
2018-03-14T08:51:19.450Z,7.17
2018-03-14T08:53:47.042Z,7.15
2018-03-14T08:56:14.643Z,7.19
2018-03-14T08:58:42.293Z,7.23
2018-03-14T09:01:09.936Z,7.28
2018-03-14T09:03:37.651Z,7.26
2018-03-14T09:06:05.249Z,7.26
2018-03-14T09:08:32.885Z,7.28
2018-03-14T09:11:00.506Z,7.37
2018-03-14T09:13:28.107Z,7.49
2018-03-14T09:15:55.731Z,7.58
2018-03-14T09:18:23.322Z,7.73
2018-03-14T09:20:50.955Z,7.80
2018-03-14T09:23:18.559Z,7.86
2018-03-14T09:25:46.326Z,7.93
2018-03-14T09:28:13.922Z,7.95
2018-03-14T09:30:41.558Z,7.99
2018-03-14T09:33:09.156Z,8.06
2018-03-14T09:35:36.786Z,8.19
2018-03-14T09:38:04.386Z,8.11
2018-03-14T09:40:32.061Z,8.05
2018-03-14T09:42:59.690Z,8.16
2018-03-14T09:45:27.311Z,8.34
2018-03-14T09:47:54.923Z,8.55
2018-03-14T09:50:22.590Z,8.67
2018-03-14T09:52:50.175Z,8.70
2018-03-14T09:55:17.810Z,8.71
2018-03-14T09:57:45.402Z,8.80
2018-03-14T10:00:13.214Z,8.90
2018-03-14T10:02:40.819Z,8.94
2018-03-14T10:05:08.600Z,9.08
2018-03-14T10:07:36.195Z,9.30
2018-03-14T10:10:03.823Z,9.32
2018-03-14T10:12:31.439Z,9.40
2018-03-14T10:14:59.075Z,9.56
2018-03-14T10:17:26.804Z,9.69
2018-03-14T10:19:54.523Z,9.80
2018-03-14T10:22:22.123Z,9.86
2018-03-14T10:24:49.797Z,9.94
2018-03-14T10:27:17.482Z,10.06
2018-03-14T10:29:45.138Z,10.19
2018-03-14T10:32:12.731Z,10.18
2018-03-14T10:34:40.367Z,10.35
2018-03-14T10:37:07.966Z,10.40
2018-03-14T10:39:35.594Z,10.44
2018-03-14T10:42:03.225Z,10.79
2018-03-14T10:44:30.842Z,11.07
2018-03-14T10:46:58.602Z,11.09
2018-03-14T10:49:26.206Z,11.12
2018-03-14T10:51:53.847Z,11.48
2018-03-14T10:54:21.579Z,11.69
2018-03-14T10:56:49.174Z,11.78
2018-03-14T10:59:16.903Z,11.92
2018-03-14T11:01:47.447Z,12.23
2018-03-14T11:04:15.075Z,12.47
2018-03-14T11:06:42.722Z,12.70
2018-03-14T11:09:10.358Z,12.42
2018-03-14T11:11:37.990Z,12.29
2018-03-14T11:14:05.610Z,12.53
2018-03-14T11:16:33.237Z,12.73
2018-03-14T11:19:00.850Z,13.01
2018-03-14T11:21:28.588Z,13.15
2018-03-14T11:23:56.170Z,13.02
2018-03-14T11:26:23.845Z,13.04
2018-03-14T11:28:51.442Z,13.13
2018-03-14T11:31:19.084Z,13.27
2018-03-14T11:33:46.858Z,13.34
2018-03-14T11:36:14.508Z,13.42
2018-03-14T11:38:42.102Z,13.60
2018-03-14T11:41:09.722Z,14.00
2018-03-14T11:43:37.328Z,13.53
2018-03-14T11:46:04.958Z,13.32
2018-03-14T11:48:32.559Z,13.25
2018-03-14T11:51:00.204Z,13.16
2018-03-14T11:53:27.806Z,13.15
2018-03-14T11:55:55.423Z,13.10
2018-03-14T11:58:23.039Z,13.49
2018-03-14T12:00:50.803Z,13.80
2018-03-14T12:03:18.399Z,13.95
2018-03-14T12:05:46.143Z,14.19
2018-03-14T12:08:13.740Z,14.24
2018-03-14T12:10:41.478Z,14.37
2018-03-14T12:13:09.098Z,14.33
2018-03-14T12:15:36.699Z,14.46
2018-03-14T12:18:04.324Z,14.83
2018-03-14T12:20:31.910Z,15.08
2018-03-14T12:22:59.542Z,15.71
2018-03-14T12:25:27.138Z,15.49
2018-03-14T12:27:54.787Z,15.22
2018-03-14T12:30:22.386Z,15.05
2018-03-14T12:32:50.010Z,14.89
2018-03-14T12:35:17.608Z,15.06
2018-03-14T12:37:45.237Z,15.06
2018-03-14T12:40:12.894Z,14.84
2018-03-14T12:42:40.517Z,14.93
2018-03-14T12:45:08.126Z,15.13
2018-03-14T12:47:35.835Z,15.07
2018-03-14T12:50:03.408Z,14.90
2018-03-14T12:52:31.081Z,14.45
2018-03-14T12:54:58.682Z,14.36
2018-03-14T12:57:26.474Z,14.24
2018-03-14T12:59:54.179Z,13.98
2018-03-14T13:02:21.903Z,14.29
2018-03-14T13:04:49.514Z,14.59
2018-03-14T13:07:17.142Z,14.82
2018-03-14T13:09:44.743Z,15.24
2018-03-14T13:12:12.372Z,15.43
2018-03-14T13:14:39.984Z,15.45
2018-03-14T13:17:07.610Z,15.39
2018-03-14T13:19:35.214Z,15.21
2018-03-14T13:22:02.848Z,15.56
2018-03-14T13:24:30.562Z,15.64
2018-03-14T13:26:58.182Z,15.87
2018-03-14T13:29:25.886Z,16.12
2018-03-14T13:31:53.546Z,16.44
2018-03-14T13:34:21.143Z,16.32
2018-03-14T13:36:48.838Z,16.21
2018-03-14T13:39:16.438Z,16.33
2018-03-14T13:41:44.071Z,16.21
2018-03-14T13:44:11.703Z,15.96
2018-03-14T13:46:39.362Z,16.09
2018-03-14T13:49:06.967Z,16.13
2018-03-14T13:51:34.674Z,16.06
2018-03-14T13:54:02.306Z,16.20
2018-03-14T13:56:29.914Z,16.02
2018-03-14T13:58:57.718Z,15.77
2018-03-14T14:01:25.339Z,14.86
2018-03-14T14:03:52.947Z,14.50
2018-03-14T14:06:20.534Z,14.05
2018-03-14T14:08:48.192Z,13.55
2018-03-14T14:11:15.787Z,13.36
2018-03-14T14:13:43.410Z,13.15
2018-03-14T14:16:11.020Z,13.05
2018-03-14T14:18:38.663Z,13.01
2018-03-14T14:21:06.253Z,12.94
2018-03-14T14:23:33.944Z,12.82
2018-03-14T14:26:01.564Z,12.87
2018-03-14T14:28:29.207Z,12.81
2018-03-14T14:30:56.806Z,12.83
2018-03-14T14:33:24.438Z,12.82
2018-03-14T14:35:52.035Z,12.86
2018-03-14T14:38:19.667Z,13.40
2018-03-14T14:40:47.263Z,13.59
2018-03-14T14:43:14.928Z,13.87
2018-03-14T14:45:42.528Z,13.99
2018-03-14T14:48:10.150Z,13.98
2018-03-14T14:50:37.756Z,14.22
2018-03-14T14:53:05.461Z,14.66
2018-03-14T14:55:33.050Z,14.59
2018-03-14T14:58:00.686Z,14.27
2018-03-14T15:00:28.269Z,13.94
2018-03-14T15:02:55.911Z,13.85
2018-03-14T15:05:23.516Z,13.68
2018-03-14T15:07:51.135Z,13.58
2018-03-14T15:10:18.875Z,13.83
2018-03-14T15:12:46.615Z,13.96
2018-03-14T15:15:14.213Z,14.57
2018-03-14T15:17:41.825Z,14.98
2018-03-14T15:20:09.439Z,15.27
2018-03-14T15:22:37.102Z,15.47
2018-03-14T15:25:04.699Z,15.38
2018-03-14T15:27:32.294Z,14.88
2018-03-14T15:29:59.912Z,14.81
2018-03-14T15:32:27.542Z,15.13
2018-03-14T15:34:55.162Z,15.35
2018-03-14T15:37:22.807Z,15.42
2018-03-14T15:39:50.394Z,15.08
2018-03-14T15:42:18.027Z,15.10
2018-03-14T15:44:45.640Z,15.04
2018-03-14T15:47:13.275Z,15.16
2018-03-14T15:49:40.881Z,15.26
2018-03-14T15:52:08.558Z,15.06
2018-03-14T15:54:36.163Z,15.17
2018-03-14T15:57:04.064Z,15.34
2018-03-14T15:59:31.642Z,15.39
2018-03-14T16:01:59.371Z,15.37
2018-03-14T16:04:26.976Z,15.14
2018-03-14T16:06:54.575Z,15.21
2018-03-14T16:09:22.203Z,15.34
2018-03-14T16:11:49.821Z,15.49
2018-03-14T16:14:17.457Z,15.38
2018-03-14T16:16:45.047Z,15.38
2018-03-14T16:19:12.680Z,14.99
2018-03-14T16:21:40.294Z,14.87
2018-03-14T16:24:07.928Z,14.69
2018-03-14T16:26:35.570Z,14.58
2018-03-14T16:29:03.282Z,14.66
2018-03-14T16:31:30.873Z,14.74
2018-03-14T16:33:58.490Z,14.43
2018-03-14T16:36:26.086Z,13.93
2018-03-14T16:38:53.720Z,13.64
2018-03-14T16:41:21.359Z,13.50
2018-03-14T16:43:48.982Z,13.35
2018-03-14T16:46:16.572Z,13.50
2018-03-14T16:48:44.203Z,13.48
2018-03-14T16:51:11.798Z,13.42
2018-03-14T16:53:39.417Z,13.31
2018-03-14T16:56:07.061Z,13.13
2018-03-14T16:58:34.694Z,12.91
2018-03-14T17:01:02.287Z,12.66
2018-03-14T17:03:29.909Z,12.45
2018-03-14T17:05:57.534Z,12.37
2018-03-14T17:08:25.148Z,12.28
2018-03-14T17:10:52.770Z,12.37
2018-03-14T17:13:20.386Z,12.33
2018-03-14T17:15:48.142Z,12.20
2018-03-14T17:18:17.671Z,12.18
2018-03-14T17:20:45.259Z,12.16
2018-03-14T17:23:12.927Z,12.14
2018-03-14T17:25:41.318Z,12.09
2018-03-14T17:28:08.952Z,12.01
2018-03-14T17:30:36.631Z,11.99
2018-03-14T17:33:06.169Z,11.97
2018-03-14T17:35:33.766Z,11.90
2018-03-14T17:38:01.429Z,11.80
2018-03-14T17:40:29.039Z,11.85
2018-03-14T17:42:59.635Z,11.97
2018-03-14T17:45:27.246Z,11.92
2018-03-14T17:48:01.730Z,11.89
2018-03-14T17:50:29.321Z,11.88
2018-03-14T17:52:56.941Z,11.84
2018-03-14T17:55:24.838Z,11.81
2018-03-14T17:57:52.503Z,11.78
2018-03-14T18:00:20.126Z,11.69
2018-03-14T18:02:47.827Z,11.70
2018-03-14T18:05:15.435Z,11.62
2018-03-14T18:07:43.055Z,11.48
2018-03-14T18:10:10.671Z,11.36
2018-03-14T18:12:38.301Z,11.25
2018-03-14T18:15:05.893Z,11.23
2018-03-14T18:17:33.531Z,11.15
2018-03-14T18:20:01.121Z,11.06
2018-03-14T18:22:31.951Z,10.93
2018-03-14T18:24:59.561Z,10.92
2018-03-14T18:27:27.473Z,10.84
2018-03-14T18:29:55.027Z,10.79
2018-03-14T18:32:22.830Z,10.77
2018-03-14T18:34:51.716Z,10.80
2018-03-14T18:37:19.884Z,10.75
2018-03-14T18:39:47.538Z,10.68
2018-03-14T18:42:15.202Z,10.62
2018-03-14T18:44:42.795Z,10.57
2018-03-14T18:47:10.431Z,10.56
2018-03-14T18:49:38.024Z,10.52
2018-03-14T18:52:07.168Z,10.45
2018-03-14T18:54:34.769Z,10.39
2018-03-14T18:57:02.453Z,10.39
2018-03-14T18:59:30.078Z,10.33
2018-03-14T19:01:57.708Z,10.27
2018-03-14T19:04:25.320Z,10.25
2018-03-14T19:06:52.931Z,10.28
2018-03-14T19:09:20.534Z,10.20
2018-03-14T19:11:48.159Z,10.17
2018-03-14T19:14:15.763Z,10.16
2018-03-14T19:16:44.304Z,10.13
2018-03-14T19:19:11.963Z,10.11
2018-03-14T19:21:39.633Z,10.06
2018-03-14T19:24:07.253Z,10.01
2018-03-14T19:26:34.914Z,9.97
2018-03-14T19:29:02.505Z,10.01
2018-03-14T19:31:30.178Z,9.96
2018-03-14T19:33:57.794Z,9.94
2018-03-14T19:36:25.436Z,9.87
2018-03-14T19:38:53.220Z,9.84
2018-03-14T19:41:20.802Z,9.82
2018-03-14T19:43:48.448Z,9.88
2018-03-14T19:46:16.076Z,9.79
2018-03-14T19:48:43.684Z,9.74
2018-03-14T19:51:11.298Z,9.79
2018-03-14T19:53:38.901Z,9.75
2018-03-14T19:56:06.608Z,9.73
2018-03-14T19:58:34.224Z,9.72
2018-03-14T20:01:04.267Z,9.68
2018-03-14T20:03:31.888Z,9.62
2018-03-14T20:05:59.530Z,9.58
2018-03-14T20:08:27.143Z,9.54
2018-03-14T20:10:54.772Z,9.55
2018-03-14T20:13:22.527Z,9.49
2018-03-14T20:15:50.261Z,9.44
2018-03-14T20:18:19.630Z,9.42
2018-03-14T20:20:47.244Z,9.35
2018-03-14T20:23:14.866Z,9.32
2018-03-14T20:25:42.522Z,9.28
2018-03-14T20:28:10.491Z,9.29
2018-03-14T20:30:38.173Z,9.29
2018-03-14T20:33:05.867Z,9.28
2018-03-14T20:35:33.564Z,9.25
2018-03-14T20:38:01.212Z,9.13
2018-03-14T20:40:28.857Z,9.15
2018-03-14T20:42:56.442Z,9.19
2018-03-14T20:45:24.058Z,9.08
2018-03-14T20:47:51.666Z,8.98
2018-03-14T20:50:19.291Z,8.99
2018-03-14T20:52:47.337Z,8.96
2018-03-14T20:55:15.600Z,8.88
2018-03-14T20:57:43.203Z,8.82
2018-03-14T21:00:10.871Z,8.78
2018-03-14T21:02:38.485Z,8.70
2018-03-14T21:05:06.114Z,8.72
2018-03-14T21:07:33.810Z,8.74
2018-03-14T21:10:01.458Z,8.70
2018-03-14T21:12:29.056Z,8.67
2018-03-14T21:14:56.687Z,8.66
2018-03-14T21:17:24.347Z,8.63
2018-03-14T21:19:52.022Z,8.58
2018-03-14T21:22:19.597Z,8.57
2018-03-14T21:24:47.215Z,8.54
2018-03-14T21:27:14.807Z,8.50
2018-03-14T21:29:42.543Z,8.53
2018-03-14T21:32:10.139Z,8.49
2018-03-14T21:34:37.774Z,8.47
2018-03-14T21:37:05.369Z,8.45
2018-03-14T21:39:33.010Z,8.46
2018-03-14T21:42:00.717Z,8.44
2018-03-14T21:44:28.339Z,8.41
2018-03-14T21:46:56.729Z,8.33
2018-03-14T21:49:27.881Z,8.30
2018-03-14T21:51:55.482Z,8.29
2018-03-14T21:54:23.118Z,8.27
2018-03-14T21:56:50.704Z,8.28
2018-03-14T21:59:18.311Z,8.34
2018-03-14T22:01:46.060Z,8.29
2018-03-14T22:04:13.644Z,8.34
2018-03-14T22:06:41.289Z,8.29
2018-03-14T22:09:08.903Z,8.18
2018-03-14T22:11:36.638Z,8.23
2018-03-14T22:14:04.169Z,8.28
2018-03-14T22:16:31.799Z,8.22
2018-03-14T22:18:59.574Z,8.28
2018-03-14T22:21:27.191Z,8.19
2018-03-14T22:23:54.787Z,8.14
2018-03-14T22:26:22.399Z,8.14
2018-03-14T22:28:50.003Z,8.06
2018-03-14T22:31:17.658Z,8.02
2018-03-14T22:33:45.374Z,8.05
2018-03-14T22:36:13.019Z,8.09
2018-03-14T22:38:40.594Z,8.04
2018-03-14T22:41:08.900Z,7.98
2018-03-14T22:43:36.609Z,7.98
2018-03-14T22:46:04.247Z,8.04
2018-03-14T22:48:32.028Z,7.90
2018-03-14T22:50:59.804Z,7.89
2018-03-14T22:53:27.412Z,7.84
2018-03-14T22:55:55.066Z,7.85
2018-03-14T22:58:22.662Z,7.86
2018-03-14T23:00:50.304Z,7.80
2018-03-14T23:03:17.917Z,7.77
2018-03-14T23:05:45.556Z,7.77
2018-03-14T23:08:13.124Z,7.72
2018-03-14T23:10:40.751Z,7.63
2018-03-14T23:13:08.353Z,7.62
2018-03-14T23:15:36.004Z,7.58
2018-03-14T23:18:03.595Z,7.56
2018-03-14T23:20:31.242Z,7.58
2018-03-14T23:22:58.851Z,7.58
2018-03-14T23:25:26.528Z,7.56
2018-03-14T23:27:54.111Z,7.63
2018-03-14T23:30:21.751Z,7.64
2018-03-14T23:32:49.368Z,7.58
2018-03-14T23:35:17.015Z,7.57
2018-03-14T23:37:44.627Z,7.51
2018-03-14T23:40:12.246Z,7.46
2018-03-14T23:42:39.838Z,7.54
2018-03-14T23:45:07.614Z,7.56
2018-03-14T23:47:35.204Z,7.49
2018-03-14T23:50:02.834Z,7.44
2018-03-14T23:52:30.464Z,7.39
2018-03-14T23:54:58.088Z,7.33
2018-03-14T23:57:25.672Z,7.29
2018-03-14T23:59:53.290Z,7.29
